sensor_id;sensor_type;location;lat;lon;timestamp;temperature;humidity
31819;DHT22;18384;48.860;9.188;2023-02-18T00:01:28;13.10;99.90
31819;DHT22;18384;48.860;9.188;2023-02-18T00:03:56;13.00;99.90
31819;DHT22;18384;48.860;9.188;2023-02-18T00:06:30;13.00;99.90
31819;DHT22;18384;48.860;9.188;2023-02-18T00:08:58;13.00;99.90
31819;DHT22;18384;48.860;9.188;2023-02-18T00:11:28;13.00;99.90
31819;DHT22;18384;48.860;9.188;2023-02-18T00:13:58;13.00;99.90
31819;DHT22;18384;48.860;9.188;2023-02-18T00:16:29;13.10;99.90
31819;DHT22;18384;48.860;9.188;2023-02-18T00:19:04;13.00;99.90
31819;DHT22;18384;48.860;9.188;2023-02-18T00:21:33;13.00;99.90
31819;DHT22;18384;48.860;9.188;2023-02-18T00:24:00;13.00;99.90
31819;DHT22;18384;48.860;9.188;2023-02-18T00:26:27;13.00;99.90
31819;DHT22;18384;48.860;9.188;2023-02-18T00:28:53;13.00;99.90
31819;DHT22;18384;48.860;9.188;2023-02-18T00:31:43;13.00;99.90
31819;DHT22;18384;48.860;9.188;2023-02-18T00:34:10;13.00;99.90
31819;DHT22;18384;48.860;9.188;2023-02-18T00:36:36;13.00;99.90
31819;DHT22;18384;48.860;9.188;2023-02-18T00:39:05;13.00;99.90
31819;DHT22;18384;48.860;9.188;2023-02-18T00:41:34;13.10;99.90
31819;DHT22;18384;48.860;9.188;2023-02-18T00:44:00;13.10;99.90
31819;DHT22;18384;48.860;9.188;2023-02-18T00:46:26;13.10;99.90
31819;DHT22;18384;48.860;9.188;2023-02-18T00:48:53;13.00;99.90
31819;DHT22;18384;48.860;9.188;2023-02-18T00:51:20;13.00;99.90
31819;DHT22;18384;48.860;9.188;2023-02-18T00:53:46;13.00;99.90
31819;DHT22;18384;48.860;9.188;2023-02-18T00:56:12;12.90;99.90
31819;DHT22;18384;48.860;9.188;2023-02-18T00:58:39;13.00;99.90
31819;DHT22;18384;48.860;9.188;2023-02-18T01:01:05;13.00;99.90
31819;DHT22;18384;48.860;9.188;2023-02-18T01:03:33;13.00;99.90
31819;DHT22;18384;48.860;9.188;2023-02-18T01:06:04;13.00;99.90
31819;DHT22;18384;48.860;9.188;2023-02-18T01:08:31;13.00;99.90
31819;DHT22;18384;48.860;9.188;2023-02-18T01:10:59;13.00;99.90
31819;DHT22;18384;48.860;9.188;2023-02-18T01:13:26;14.20;99.90
31819;DHT22;18384;48.860;9.188;2023-02-18T01:15:53;13.00;99.90
31819;DHT22;18384;48.860;9.188;2023-02-18T01:18:20;13.00;99.90
31819;DHT22;18384;48.860;9.188;2023-02-18T01:20:47;13.00;99.90
31819;DHT22;18384;48.860;9.188;2023-02-18T01:23:14;13.00;99.90
31819;DHT22;18384;48.860;9.188;2023-02-18T01:25:41;13.00;99.90
31819;DHT22;18384;48.860;9.188;2023-02-18T01:28:08;13.00;99.90
31819;DHT22;18384;48.860;9.188;2023-02-18T01:30:35;13.00;99.90
31819;DHT22;18384;48.860;9.188;2023-02-18T01:33:02;13.00;99.90
31819;DHT22;18384;48.860;9.188;2023-02-18T01:35:28;13.00;99.90
31819;DHT22;18384;48.860;9.188;2023-02-18T01:37:54;12.90;99.90
31819;DHT22;18384;48.860;9.188;2023-02-18T01:40:23;12.90;99.90
31819;DHT22;18384;48.860;9.188;2023-02-18T01:42:51;12.90;99.90
31819;DHT22;18384;48.860;9.188;2023-02-18T01:49:33;12.80;99.90
31819;DHT22;18384;48.860;9.188;2023-02-18T01:52:04;12.70;99.90
31819;DHT22;18384;48.860;9.188;2023-02-18T01:54:35;12.70;99.90
31819;DHT22;18384;48.860;9.188;2023-02-18T01:57:09;12.70;99.90
31819;DHT22;18384;48.860;9.188;2023-02-18T02:00:14;12.60;99.90
31819;DHT22;18384;48.860;9.188;2023-02-18T02:02:45;12.70;99.90
31819;DHT22;18384;48.860;9.188;2023-02-18T02:05:12;12.70;99.90
31819;DHT22;18384;48.860;9.188;2023-02-18T02:07:40;12.70;99.90
31819;DHT22;18384;48.860;9.188;2023-02-18T02:10:13;12.70;99.90
31819;DHT22;18384;48.860;9.188;2023-02-18T02:12:56;12.70;99.90
31819;DHT22;18384;48.860;9.188;2023-02-18T02:15:44;12.70;99.90
31819;DHT22;18384;48.860;9.188;2023-02-18T02:24:10;12.80;99.90
31819;DHT22;18384;48.860;9.188;2023-02-18T02:35:36;12.80;99.90
31819;DHT22;18384;48.860;9.188;2023-02-18T02:38:18;12.80;99.90
31819;DHT22;18384;48.860;9.188;2023-02-18T02:41:11;12.80;99.90
31819;DHT22;18384;48.860;9.188;2023-02-18T02:44:10;12.80;99.90
31819;DHT22;18384;48.860;9.188;2023-02-18T02:46:47;12.80;99.90
31819;DHT22;18384;48.860;9.188;2023-02-18T02:51:12;12.70;99.90
31819;DHT22;18384;48.860;9.188;2023-02-18T02:53:42;12.80;99.90
31819;DHT22;18384;48.860;9.188;2023-02-18T02:56:17;12.80;99.90
31819;DHT22;18384;48.860;9.188;2023-02-18T02:58:50;12.70;99.90
31819;DHT22;18384;48.860;9.188;2023-02-18T03:02:24;12.70;99.90
31819;DHT22;18384;48.860;9.188;2023-02-18T03:08:23;12.70;99.90
31819;DHT22;18384;48.860;9.188;2023-02-18T03:14:29;12.70;99.90
31819;DHT22;18384;48.860;9.188;2023-02-18T03:17:16;12.60;99.90
31819;DHT22;18384;48.860;9.188;2023-02-18T03:20:27;13.70;99.90
31819;DHT22;18384;48.860;9.188;2023-02-18T03:23:02;12.60;99.90
31819;DHT22;18384;48.860;9.188;2023-02-18T03:25:31;12.50;99.90
31819;DHT22;18384;48.860;9.188;2023-02-18T03:28:19;12.50;99.90
31819;DHT22;18384;48.860;9.188;2023-02-18T03:30:59;12.50;99.90
31819;DHT22;18384;48.860;9.188;2023-02-18T03:33:32;12.50;99.90
31819;DHT22;18384;48.860;9.188;2023-02-18T03:36:03;12.50;99.90
31819;DHT22;18384;48.860;9.188;2023-02-18T03:38:36;12.50;99.90
31819;DHT22;18384;48.860;9.188;2023-02-18T03:41:05;12.40;99.90
31819;DHT22;18384;48.860;9.188;2023-02-18T03:43:31;12.40;99.90
31819;DHT22;18384;48.860;9.188;2023-02-18T03:45:58;12.50;99.90
31819;DHT22;18384;48.860;9.188;2023-02-18T03:48:25;12.50;99.90
31819;DHT22;18384;48.860;9.188;2023-02-18T03:50:51;12.50;99.90
31819;DHT22;18384;48.860;9.188;2023-02-18T03:53:17;12.50;99.90
31819;DHT22;18384;48.860;9.188;2023-02-18T03:55:43;12.50;99.90
31819;DHT22;18384;48.860;9.188;2023-02-18T03:58:09;12.40;99.90
31819;DHT22;18384;48.860;9.188;2023-02-18T04:00:35;12.40;99.90
31819;DHT22;18384;48.860;9.188;2023-02-18T04:03:01;12.40;99.90
31819;DHT22;18384;48.860;9.188;2023-02-18T04:05:27;12.40;99.90
31819;DHT22;18384;48.860;9.188;2023-02-18T04:07:54;12.40;99.90
31819;DHT22;18384;48.860;9.188;2023-02-18T04:10:20;12.30;99.90
31819;DHT22;18384;48.860;9.188;2023-02-18T04:12:47;12.30;99.90
31819;DHT22;18384;48.860;9.188;2023-02-18T04:15:13;12.30;99.90
31819;DHT22;18384;48.860;9.188;2023-02-18T04:17:39;12.20;99.90
31819;DHT22;18384;48.860;9.188;2023-02-18T04:20:06;12.20;99.90
31819;DHT22;18384;48.860;9.188;2023-02-18T04:22:32;12.10;99.90
31819;DHT22;18384;48.860;9.188;2023-02-18T04:24:58;12.10;99.90
31819;DHT22;18384;48.860;9.188;2023-02-18T04:27:24;11.10;99.90
31819;DHT22;18384;48.860;9.188;2023-02-18T04:29:51;12.00;99.90
31819;DHT22;18384;48.860;9.188;2023-02-18T04:32:17;12.00;99.90
31819;DHT22;18384;48.860;9.188;2023-02-18T04:34:43;12.80;99.90
31819;DHT22;18384;48.860;9.188;2023-02-18T04:37:09;12.10;99.90
31819;DHT22;18384;48.860;9.188;2023-02-18T04:39:36;12.10;99.90
31819;DHT22;18384;48.860;9.188;2023-02-18T04:42:02;12.20;99.90
31819;DHT22;18384;48.860;9.188;2023-02-18T04:44:34;12.20;99.90
31819;DHT22;18384;48.860;9.188;2023-02-18T04:47:02;12.20;99.90
31819;DHT22;18384;48.860;9.188;2023-02-18T04:49:29;12.40;99.90
31819;DHT22;18384;48.860;9.188;2023-02-18T04:51:55;12.30;99.90
31819;DHT22;18384;48.860;9.188;2023-02-18T04:54:21;12.10;99.90
31819;DHT22;18384;48.860;9.188;2023-02-18T04:56:47;12.20;99.90
31819;DHT22;18384;48.860;9.188;2023-02-18T04:59:14;12.20;99.90
31819;DHT22;18384;48.860;9.188;2023-02-18T05:01:41;12.10;99.90
31819;DHT22;18384;48.860;9.188;2023-02-18T05:04:07;12.10;99.90
31819;DHT22;18384;48.860;9.188;2023-02-18T05:06:33;12.10;99.90
31819;DHT22;18384;48.860;9.188;2023-02-18T05:08:59;12.10;99.90
31819;DHT22;18384;48.860;9.188;2023-02-18T05:11:26;12.10;99.90
31819;DHT22;18384;48.860;9.188;2023-02-18T05:13:52;12.10;99.90
31819;DHT22;18384;48.860;9.188;2023-02-18T05:16:18;12.10;99.90
31819;DHT22;18384;48.860;9.188;2023-02-18T05:18:44;12.10;99.90
31819;DHT22;18384;48.860;9.188;2023-02-18T05:21:10;12.00;99.90
31819;DHT22;18384;48.860;9.188;2023-02-18T05:23:36;12.00;99.90
31819;DHT22;18384;48.860;9.188;2023-02-18T05:26:03;11.90;99.90
31819;DHT22;18384;48.860;9.188;2023-02-18T05:28:29;11.90;99.90
31819;DHT22;18384;48.860;9.188;2023-02-18T05:30:55;11.90;99.90
31819;DHT22;18384;48.860;9.188;2023-02-18T05:33:21;11.90;99.90
31819;DHT22;18384;48.860;9.188;2023-02-18T05:35:47;11.90;99.90
31819;DHT22;18384;48.860;9.188;2023-02-18T05:38:13;11.80;99.90
31819;DHT22;18384;48.860;9.188;2023-02-18T05:40:39;11.80;99.90
31819;DHT22;18384;48.860;9.188;2023-02-18T05:43:06;11.80;99.90
31819;DHT22;18384;48.860;9.188;2023-02-18T05:45:32;11.80;99.90
31819;DHT22;18384;48.860;9.188;2023-02-18T05:47:58;11.80;99.90
31819;DHT22;18384;48.860;9.188;2023-02-18T05:50:24;11.80;99.90
31819;DHT22;18384;48.860;9.188;2023-02-18T05:52:50;11.80;99.90
31819;DHT22;18384;48.860;9.188;2023-02-18T05:55:16;11.70;99.90
31819;DHT22;18384;48.860;9.188;2023-02-18T05:57:42;11.70;99.90
31819;DHT22;18384;48.860;9.188;2023-02-18T06:00:09;11.70;99.90
31819;DHT22;18384;48.860;9.188;2023-02-18T06:02:36;11.60;99.90
31819;DHT22;18384;48.860;9.188;2023-02-18T06:05:03;11.70;99.90
31819;DHT22;18384;48.860;9.188;2023-02-18T06:07:30;11.70;99.90
31819;DHT22;18384;48.860;9.188;2023-02-18T06:09:56;11.70;99.90
31819;DHT22;18384;48.860;9.188;2023-02-18T06:12:22;11.60;99.90
31819;DHT22;18384;48.860;9.188;2023-02-18T06:14:48;11.70;99.90
31819;DHT22;18384;48.860;9.188;2023-02-18T06:17:15;11.60;99.90
31819;DHT22;18384;48.860;9.188;2023-02-18T06:19:44;11.70;99.90
31819;DHT22;18384;48.860;9.188;2023-02-18T06:22:10;11.70;99.90
31819;DHT22;18384;48.860;9.188;2023-02-18T06:24:37;11.70;99.90
31819;DHT22;18384;48.860;9.188;2023-02-18T06:27:03;11.70;99.90
31819;DHT22;18384;48.860;9.188;2023-02-18T06:29:29;11.80;99.90
31819;DHT22;18384;48.860;9.188;2023-02-18T06:31:57;11.80;99.90
31819;DHT22;18384;48.860;9.188;2023-02-18T06:34:24;11.80;99.90
31819;DHT22;18384;48.860;9.188;2023-02-18T06:36:51;11.80;99.90
31819;DHT22;18384;48.860;9.188;2023-02-18T06:39:17;11.70;99.90
31819;DHT22;18384;48.860;9.188;2023-02-18T06:41:43;11.80;99.90
31819;DHT22;18384;48.860;9.188;2023-02-18T06:44:09;11.90;99.90
31819;DHT22;18384;48.860;9.188;2023-02-18T06:46:36;11.90;99.90
31819;DHT22;18384;48.860;9.188;2023-02-18T06:49:02;11.80;99.90
31819;DHT22;18384;48.860;9.188;2023-02-18T06:51:28;12.00;99.90
31819;DHT22;18384;48.860;9.188;2023-02-18T06:53:54;12.00;99.90
31819;DHT22;18384;48.860;9.188;2023-02-18T06:56:21;12.00;99.90
31819;DHT22;18384;48.860;9.188;2023-02-18T06:58:47;12.00;99.90
31819;DHT22;18384;48.860;9.188;2023-02-18T07:01:13;12.00;99.90
31819;DHT22;18384;48.860;9.188;2023-02-18T07:03:39;12.10;99.90
31819;DHT22;18384;48.860;9.188;2023-02-18T07:06:05;12.10;99.90
31819;DHT22;18384;48.860;9.188;2023-02-18T07:08:31;12.20;99.90
31819;DHT22;18384;48.860;9.188;2023-02-18T07:11:00;12.20;99.90
31819;DHT22;18384;48.860;9.188;2023-02-18T07:13:26;12.30;99.90
31819;DHT22;18384;48.860;9.188;2023-02-18T07:15:53;12.20;99.90
31819;DHT22;18384;48.860;9.188;2023-02-18T07:18:19;12.20;99.90
31819;DHT22;18384;48.860;9.188;2023-02-18T07:20:45;12.30;99.90
31819;DHT22;18384;48.860;9.188;2023-02-18T07:23:11;12.30;99.90
31819;DHT22;18384;48.860;9.188;2023-02-18T07:25:37;12.30;99.90
31819;DHT22;18384;48.860;9.188;2023-02-18T07:28:03;12.30;99.90
31819;DHT22;18384;48.860;9.188;2023-02-18T07:30:29;12.30;99.90
31819;DHT22;18384;48.860;9.188;2023-02-18T07:32:55;12.30;99.90
31819;DHT22;18384;48.860;9.188;2023-02-18T07:35:22;12.40;99.90
31819;DHT22;18384;48.860;9.188;2023-02-18T07:37:49;12.40;99.90
31819;DHT22;18384;48.860;9.188;2023-02-18T07:40:18;12.40;99.90
31819;DHT22;18384;48.860;9.188;2023-02-18T07:42:47;12.40;99.90
31819;DHT22;18384;48.860;9.188;2023-02-18T07:45:13;12.40;99.90
31819;DHT22;18384;48.860;9.188;2023-02-18T07:47:40;12.50;99.90
31819;DHT22;18384;48.860;9.188;2023-02-18T07:50:07;12.50;99.90
31819;DHT22;18384;48.860;9.188;2023-02-18T07:52:34;12.50;99.90
31819;DHT22;18384;48.860;9.188;2023-02-18T07:55:00;12.50;99.90
31819;DHT22;18384;48.860;9.188;2023-02-18T07:57:27;12.60;99.90
31819;DHT22;18384;48.860;9.188;2023-02-18T07:59:53;12.60;99.90
31819;DHT22;18384;48.860;9.188;2023-02-18T08:02:21;12.70;99.90
31819;DHT22;18384;48.860;9.188;2023-02-18T08:04:48;12.70;99.90
31819;DHT22;18384;48.860;9.188;2023-02-18T08:07:17;12.80;99.90
31819;DHT22;18384;48.860;9.188;2023-02-18T08:09:44;12.90;99.90
31819;DHT22;18384;48.860;9.188;2023-02-18T08:12:10;12.90;99.90
31819;DHT22;18384;48.860;9.188;2023-02-18T08:14:36;12.90;99.90
31819;DHT22;18384;48.860;9.188;2023-02-18T08:17:02;12.80;99.90
31819;DHT22;18384;48.860;9.188;2023-02-18T08:19:28;12.90;99.90
31819;DHT22;18384;48.860;9.188;2023-02-18T08:21:54;12.80;99.90
31819;DHT22;18384;48.860;9.188;2023-02-18T08:24:20;12.90;99.90
31819;DHT22;18384;48.860;9.188;2023-02-18T08:26:46;12.90;99.90
31819;DHT22;18384;48.860;9.188;2023-02-18T08:29:12;13.00;99.90
31819;DHT22;18384;48.860;9.188;2023-02-18T08:31:39;13.00;99.90
31819;DHT22;18384;48.860;9.188;2023-02-18T08:34:05;13.10;99.90
31819;DHT22;18384;48.860;9.188;2023-02-18T08:36:31;13.10;99.90
31819;DHT22;18384;48.860;9.188;2023-02-18T08:38:57;13.10;99.90
31819;DHT22;18384;48.860;9.188;2023-02-18T08:41:23;13.30;99.80
31819;DHT22;18384;48.860;9.188;2023-02-18T08:43:49;13.30;99.90
31819;DHT22;18384;48.860;9.188;2023-02-18T08:46:16;13.30;99.90
31819;DHT22;18384;48.860;9.188;2023-02-18T08:48:43;13.40;99.90
31819;DHT22;18384;48.860;9.188;2023-02-18T08:51:18;13.40;99.70
31819;DHT22;18384;48.860;9.188;2023-02-18T08:53:47;13.50;99.70
31819;DHT22;18384;48.860;9.188;2023-02-18T08:56:14;13.50;99.70
31819;DHT22;18384;48.860;9.188;2023-02-18T08:58:42;13.50;99.70
31819;DHT22;18384;48.860;9.188;2023-02-18T09:01:10;13.50;99.60
31819;DHT22;18384;48.860;9.188;2023-02-18T09:03:37;13.50;99.50
31819;DHT22;18384;48.860;9.188;2023-02-18T09:06:04;13.40;99.70
31819;DHT22;18384;48.860;9.188;2023-02-18T09:08:30;13.50;99.80
31819;DHT22;18384;48.860;9.188;2023-02-18T09:10:58;13.50;99.70
31819;DHT22;18384;48.860;9.188;2023-02-18T09:13:26;13.20;99.70
31819;DHT22;18384;48.860;9.188;2023-02-18T09:16:01;13.30;99.50
31819;DHT22;18384;48.860;9.188;2023-02-18T09:18:29;13.70;99.60
31819;DHT22;18384;48.860;9.188;2023-02-18T09:20:57;13.70;99.60
31819;DHT22;18384;48.860;9.188;2023-02-18T09:23:25;13.80;99.40
31819;DHT22;18384;48.860;9.188;2023-02-18T09:25:53;13.80;99.50
31819;DHT22;18384;48.860;9.188;2023-02-18T09:28:19;13.80;99.50
31819;DHT22;18384;48.860;9.188;2023-02-18T09:30:45;13.90;99.30
31819;DHT22;18384;48.860;9.188;2023-02-18T09:33:11;13.90;99.40
31819;DHT22;18384;48.860;9.188;2023-02-18T09:35:42;13.90;99.40
31819;DHT22;18384;48.860;9.188;2023-02-18T09:38:11;13.90;99.10
31819;DHT22;18384;48.860;9.188;2023-02-18T09:40:50;14.00;99.00
31819;DHT22;18384;48.860;9.188;2023-02-18T09:43:23;14.00;99.00
31819;DHT22;18384;48.860;9.188;2023-02-18T09:45:55;14.10;98.90
31819;DHT22;18384;48.860;9.188;2023-02-18T09:48:28;14.20;98.70
31819;DHT22;18384;48.860;9.188;2023-02-18T09:50:57;14.20;98.60
31819;DHT22;18384;48.860;9.188;2023-02-18T09:53:24;14.20;98.70
31819;DHT22;18384;48.860;9.188;2023-02-18T09:55:51;14.30;98.40
31819;DHT22;18384;48.860;9.188;2023-02-18T09:58:32;14.30;98.50
31819;DHT22;18384;48.860;9.188;2023-02-18T10:01:19;14.40;98.60
31819;DHT22;18384;48.860;9.188;2023-02-18T10:03:51;14.40;98.50
31819;DHT22;18384;48.860;9.188;2023-02-18T10:06:23;14.30;98.60
31819;DHT22;18384;48.860;9.188;2023-02-18T10:08:53;14.40;98.60
31819;DHT22;18384;48.860;9.188;2023-02-18T10:11:31;14.40;98.40
31819;DHT22;18384;48.860;9.188;2023-02-18T10:14:00;14.30;98.30
31819;DHT22;18384;48.860;9.188;2023-02-18T10:16:29;14.30;98.50
31819;DHT22;18384;48.860;9.188;2023-02-18T10:19:28;14.30;98.30
31819;DHT22;18384;48.860;9.188;2023-02-18T10:22:07;14.40;98.30
31819;DHT22;18384;48.860;9.188;2023-02-18T10:24:40;14.40;98.20
31819;DHT22;18384;48.860;9.188;2023-02-18T10:27:09;14.50;98.10
31819;DHT22;18384;48.860;9.188;2023-02-18T10:29:41;14.50;98.00
31819;DHT22;18384;48.860;9.188;2023-02-18T10:32:44;14.60;97.80
31819;DHT22;18384;48.860;9.188;2023-02-18T10:42:04;14.60;97.10
31819;DHT22;18384;48.860;9.188;2023-02-18T10:50:40;14.80;97.20
31819;DHT22;18384;48.860;9.188;2023-02-18T10:53:26;14.90;97.00
31819;DHT22;18384;48.860;9.188;2023-02-18T10:55:59;14.80;97.00
31819;DHT22;18384;48.860;9.188;2023-02-18T10:58:46;14.90;97.00
31819;DHT22;18384;48.860;9.188;2023-02-18T11:01:19;14.90;97.20
31819;DHT22;18384;48.860;9.188;2023-02-18T11:03:47;14.90;97.20
31819;DHT22;18384;48.860;9.188;2023-02-18T11:07:49;14.90;97.30
31819;DHT22;18384;48.860;9.188;2023-02-18T11:10:32;15.00;97.10
31819;DHT22;18384;48.860;9.188;2023-02-18T11:13:06;15.10;97.00
31819;DHT22;18384;48.860;9.188;2023-02-18T11:15:33;15.20;96.90
31819;DHT22;18384;48.860;9.188;2023-02-18T11:21:51;15.30;96.80
31819;DHT22;18384;48.860;9.188;2023-02-18T11:24:41;15.30;96.40
31819;DHT22;18384;48.860;9.188;2023-02-18T11:34:02;15.20;96.30
31819;DHT22;18384;48.860;9.188;2023-02-18T11:36:30;15.20;96.00
31819;DHT22;18384;48.860;9.188;2023-02-18T11:39:03;15.20;95.80
31819;DHT22;18384;48.860;9.188;2023-02-18T11:41:40;15.20;95.70
31819;DHT22;18384;48.860;9.188;2023-02-18T11:44:36;15.30;95.80
31819;DHT22;18384;48.860;9.188;2023-02-18T11:47:20;15.20;95.80
31819;DHT22;18384;48.860;9.188;2023-02-18T11:56:40;15.20;95.70
31819;DHT22;18384;48.860;9.188;2023-02-18T11:59:19;15.10;95.90
31819;DHT22;18384;48.860;9.188;2023-02-18T12:01:50;15.10;96.20
31819;DHT22;18384;48.860;9.188;2023-02-18T12:04:26;15.10;96.10
31819;DHT22;18384;48.860;9.188;2023-02-18T12:07:24;15.10;96.00
31819;DHT22;18384;48.860;9.188;2023-02-18T12:10:22;15.20;96.30
31819;DHT22;18384;48.860;9.188;2023-02-18T12:13:25;15.40;96.00
31819;DHT22;18384;48.860;9.188;2023-02-18T12:16:36;15.30;96.10
31819;DHT22;18384;48.860;9.188;2023-02-18T12:21:01;15.30;96.00
31819;DHT22;18384;48.860;9.188;2023-02-18T12:28:16;15.40;95.70
31819;DHT22;18384;48.860;9.188;2023-02-18T12:32:42;15.40;95.70
31819;DHT22;18384;48.860;9.188;2023-02-18T12:51:44;15.20;95.50
31819;DHT22;18384;48.860;9.188;2023-02-18T13:00:00;15.10;95.80
31819;DHT22;18384;48.860;9.188;2023-02-18T13:05:48;15.00;95.90
31819;DHT22;18384;48.860;9.188;2023-02-18T13:11:56;15.00;96.10
31819;DHT22;18384;48.860;9.188;2023-02-18T13:14:51;14.90;96.20
31819;DHT22;18384;48.860;9.188;2023-02-18T13:17:24;14.90;96.10
31819;DHT22;18384;48.860;9.188;2023-02-18T13:20:00;14.90;96.10
31819;DHT22;18384;48.860;9.188;2023-02-18T13:22:30;14.90;96.10
31819;DHT22;18384;48.860;9.188;2023-02-18T13:24:58;14.90;95.90
31819;DHT22;18384;48.860;9.188;2023-02-18T13:27:53;14.90;96.00
31819;DHT22;18384;48.860;9.188;2023-02-18T13:37:27;14.90;95.90
31819;DHT22;18384;48.860;9.188;2023-02-18T13:40:02;14.90;95.90
31819;DHT22;18384;48.860;9.188;2023-02-18T13:42:34;14.90;95.90
31819;DHT22;18384;48.860;9.188;2023-02-18T13:45:04;14.90;96.10
31819;DHT22;18384;48.860;9.188;2023-02-18T13:47:44;14.90;95.80
31819;DHT22;18384;48.860;9.188;2023-02-18T13:52:03;14.90;95.80
31819;DHT22;18384;48.860;9.188;2023-02-18T13:54:46;14.90;95.80
31819;DHT22;18384;48.860;9.188;2023-02-18T13:57:18;14.90;95.90
31819;DHT22;18384;48.860;9.188;2023-02-18T13:59:57;14.90;95.80
31819;DHT22;18384;48.860;9.188;2023-02-18T14:02:30;14.90;95.90
31819;DHT22;18384;48.860;9.188;2023-02-18T14:05:58;15.00;95.90
31819;DHT22;18384;48.860;9.188;2023-02-18T14:08:35;15.10;95.70
31819;DHT22;18384;48.860;9.188;2023-02-18T14:12:16;15.10;95.50
31819;DHT22;18384;48.860;9.188;2023-02-18T14:14:50;15.00;95.50
31819;DHT22;18384;48.860;9.188;2023-02-18T14:17:38;15.10;95.80
31819;DHT22;18384;48.860;9.188;2023-02-18T14:24:48;15.00;95.60
31819;DHT22;18384;48.860;9.188;2023-02-18T14:27:23;15.00;95.80
31819;DHT22;18384;48.860;9.188;2023-02-18T14:29:51;14.90;96.00
31819;DHT22;18384;48.860;9.188;2023-02-18T14:32:18;14.90;95.80
31819;DHT22;18384;48.860;9.188;2023-02-18T14:35:07;14.80;95.80
31819;DHT22;18384;48.860;9.188;2023-02-18T14:38:14;14.90;95.90
31819;DHT22;18384;48.860;9.188;2023-02-18T14:47:22;15.00;96.20
31819;DHT22;18384;48.860;9.188;2023-02-18T14:56:58;15.00;96.20
31819;DHT22;18384;48.860;9.188;2023-02-18T14:59:29;14.90;96.80
31819;DHT22;18384;48.860;9.188;2023-02-18T15:01:58;14.90;96.80
31819;DHT22;18384;48.860;9.188;2023-02-18T15:04:25;14.80;96.40
31819;DHT22;18384;48.860;9.188;2023-02-18T15:07:03;14.80;96.60
31819;DHT22;18384;48.860;9.188;2023-02-18T15:09:30;14.70;96.30
31819;DHT22;18384;48.860;9.188;2023-02-18T15:12:04;14.70;96.80
31819;DHT22;18384;48.860;9.188;2023-02-18T15:14:37;14.70;97.00
31819;DHT22;18384;48.860;9.188;2023-02-18T15:17:07;14.60;97.00
31819;DHT22;18384;48.860;9.188;2023-02-18T15:19:46;14.60;97.10
31819;DHT22;18384;48.860;9.188;2023-02-18T15:22:20;14.50;96.90
31819;DHT22;18384;48.860;9.188;2023-02-18T15:24:49;14.40;96.90
31819;DHT22;18384;48.860;9.188;2023-02-18T15:27:24;14.40;97.20
31819;DHT22;18384;48.860;9.188;2023-02-18T15:30:56;14.40;97.20
31819;DHT22;18384;48.860;9.188;2023-02-18T15:33:23;14.50;97.30
31819;DHT22;18384;48.860;9.188;2023-02-18T15:35:49;14.40;97.60
31819;DHT22;18384;48.860;9.188;2023-02-18T15:38:18;14.40;97.50
31819;DHT22;18384;48.860;9.188;2023-02-18T15:40:52;14.40;97.60
31819;DHT22;18384;48.860;9.188;2023-02-18T15:43:23;14.30;97.80
31819;DHT22;18384;48.860;9.188;2023-02-18T15:45:55;14.40;97.90
31819;DHT22;18384;48.860;9.188;2023-02-18T15:48:41;14.30;97.80
31819;DHT22;18384;48.860;9.188;2023-02-18T15:51:12;14.30;98.00
31819;DHT22;18384;48.860;9.188;2023-02-18T15:53:41;14.20;98.00
31819;DHT22;18384;48.860;9.188;2023-02-18T15:56:17;14.30;98.00
31819;DHT22;18384;48.860;9.188;2023-02-18T15:58:46;14.30;98.00
31819;DHT22;18384;48.860;9.188;2023-02-18T16:02:34;14.30;98.00
31819;DHT22;18384;48.860;9.188;2023-02-18T16:05:01;14.30;97.90
31819;DHT22;18384;48.860;9.188;2023-02-18T16:07:30;14.30;98.10
31819;DHT22;18384;48.860;9.188;2023-02-18T16:10:48;14.20;98.00
31819;DHT22;18384;48.860;9.188;2023-02-18T16:13:22;14.10;98.10
31819;DHT22;18384;48.860;9.188;2023-02-18T16:15:50;14.10;98.00
31819;DHT22;18384;48.860;9.188;2023-02-18T16:18:38;14.00;98.00
31819;DHT22;18384;48.860;9.188;2023-02-18T16:21:29;13.80;98.00
31819;DHT22;18384;48.860;9.188;2023-02-18T16:24:02;14.00;98.10
31819;DHT22;18384;48.860;9.188;2023-02-18T16:26:41;14.00;98.30
31819;DHT22;18384;48.860;9.188;2023-02-18T16:29:15;13.90;98.20
31819;DHT22;18384;48.860;9.188;2023-02-18T16:31:52;13.90;98.30
31819;DHT22;18384;48.860;9.188;2023-02-18T16:34:18;13.90;98.20
31819;DHT22;18384;48.860;9.188;2023-02-18T16:36:44;13.10;98.20
31819;DHT22;18384;48.860;9.188;2023-02-18T16:40:43;13.80;98.40
31819;DHT22;18384;48.860;9.188;2023-02-18T16:43:21;13.80;98.40
31819;DHT22;18384;48.860;9.188;2023-02-18T16:45:50;13.80;98.50
31819;DHT22;18384;48.860;9.188;2023-02-18T16:48:29;13.70;98.60
31819;DHT22;18384;48.860;9.188;2023-02-18T16:50:58;13.70;98.60
31819;DHT22;18384;48.860;9.188;2023-02-18T16:53:48;13.70;98.70
31819;DHT22;18384;48.860;9.188;2023-02-18T16:56:24;13.70;98.70
31819;DHT22;18384;48.860;9.188;2023-02-18T16:58:52;13.80;98.60
31819;DHT22;18384;48.860;9.188;2023-02-18T17:01:51;13.80;98.60
31819;DHT22;18384;48.860;9.188;2023-02-18T17:04:18;13.80;98.70
31819;DHT22;18384;48.860;9.188;2023-02-18T17:06:44;13.70;98.80
31819;DHT22;18384;48.860;9.188;2023-02-18T17:09:16;13.70;98.80
31819;DHT22;18384;48.860;9.188;2023-02-18T17:11:48;13.70;98.80
31819;DHT22;18384;48.860;9.188;2023-02-18T17:14:20;13.70;98.90
31819;DHT22;18384;48.860;9.188;2023-02-18T17:16:49;13.70;98.90
31819;DHT22;18384;48.860;9.188;2023-02-18T17:19:17;13.10;98.80
31819;DHT22;18384;48.860;9.188;2023-02-18T17:21:43;13.70;99.00
31819;DHT22;18384;48.860;9.188;2023-02-18T17:24:14;13.60;99.00
31819;DHT22;18384;48.860;9.188;2023-02-18T17:26:41;13.60;99.10
31819;DHT22;18384;48.860;9.188;2023-02-18T17:29:08;13.60;99.20
31819;DHT22;18384;48.860;9.188;2023-02-18T17:31:38;13.60;99.20
31819;DHT22;18384;48.860;9.188;2023-02-18T17:34:08;13.50;99.30
31819;DHT22;18384;48.860;9.188;2023-02-18T17:36:41;13.60;99.50
31819;DHT22;18384;48.860;9.188;2023-02-18T17:39:14;13.50;99.40
31819;DHT22;18384;48.860;9.188;2023-02-18T17:41:42;13.60;99.40
31819;DHT22;18384;48.860;9.188;2023-02-18T17:44:19;13.60;99.30
31819;DHT22;18384;48.860;9.188;2023-02-18T17:46:47;13.50;99.40
31819;DHT22;18384;48.860;9.188;2023-02-18T17:49:17;13.50;99.50
31819;DHT22;18384;48.860;9.188;2023-02-18T17:51:43;13.50;99.50
31819;DHT22;18384;48.860;9.188;2023-02-18T17:54:15;13.50;99.50
31819;DHT22;18384;48.860;9.188;2023-02-18T17:56:43;13.50;99.50
31819;DHT22;18384;48.860;9.188;2023-02-18T17:59:10;13.50;99.50
31819;DHT22;18384;48.860;9.188;2023-02-18T18:01:37;13.50;99.40
31819;DHT22;18384;48.860;9.188;2023-02-18T18:04:05;13.40;99.60
31819;DHT22;18384;48.860;9.188;2023-02-18T18:06:36;13.40;99.60